sensor_id;sensor_type;location;lat;lon;timestamp;pressure;altitude;pressure_sealevel;temperature;humidity
21431;BME280;10876;49.038;10.608;2022-07-25T00:00:07;97858.59;;;18.08;100.00
21431;BME280;10876;49.038;10.608;2022-07-25T00:02:34;97862.78;;;17.91;100.00
21431;BME280;10876;49.038;10.608;2022-07-25T00:05:01;97856.03;;;17.88;100.00
21431;BME280;10876;49.038;10.608;2022-07-25T00:07:28;97854.69;;;17.75;100.00
21431;BME280;10876;49.038;10.608;2022-07-25T00:09:55;97857.31;;;17.61;100.00
21431;BME280;10876;49.038;10.608;2022-07-25T00:12:22;97835.28;;;17.34;100.00
21431;BME280;10876;49.038;10.608;2022-07-25T00:14:50;97833.66;;;17.33;100.00
21431;BME280;10876;49.038;10.608;2022-07-25T00:17:17;97843.50;;;17.30;100.00
21431;BME280;10876;49.038;10.608;2022-07-25T00:19:43;97846.84;;;17.13;100.00
21431;BME280;10876;49.038;10.608;2022-07-25T00:22:10;97814.06;;;17.15;100.00
21431;BME280;10876;49.038;10.608;2022-07-25T00:24:37;97781.75;;;17.23;100.00
21431;BME280;10876;49.038;10.608;2022-07-25T00:27:04;97784.84;;;17.18;100.00
21431;BME280;10876;49.038;10.608;2022-07-25T00:29:30;97785.94;;;17.09;100.00
21431;BME280;10876;49.038;10.608;2022-07-25T00:31:58;97787.06;;;17.05;100.00
21431;BME280;10876;49.038;10.608;2022-07-25T00:34:25;97783.66;;;17.19;100.00
21431;BME280;10876;49.038;10.608;2022-07-25T00:36:52;97788.25;;;17.04;100.00
21431;BME280;10876;49.038;10.608;2022-07-25T00:39:19;97770.44;;;17.01;100.00
21431;BME280;10876;49.038;10.608;2022-07-25T00:41:45;97748.72;;;17.03;100.00
21431;BME280;10876;49.038;10.608;2022-07-25T00:44:21;97744.78;;;17.04;100.00
21431;BME280;10876;49.038;10.608;2022-07-25T00:46:48;97749.53;;;17.07;100.00
21431;BME280;10876;49.038;10.608;2022-07-25T00:49:16;97757.84;;;17.07;100.00
21431;BME280;10876;49.038;10.608;2022-07-25T00:51:43;97792.41;;;17.21;100.00
21431;BME280;10876;49.038;10.608;2022-07-25T00:54:10;97796.63;;;17.11;100.00
21431;BME280;10876;49.038;10.608;2022-07-25T00:56:37;97823.84;;;17.05;100.00
21431;BME280;10876;49.038;10.608;2022-07-25T00:59:08;97824.53;;;16.99;100.00
21431;BME280;10876;49.038;10.608;2022-07-25T01:01:35;97832.59;;;17.11;100.00
21431;BME280;10876;49.038;10.608;2022-07-25T01:04:02;97840.06;;;17.07;100.00
21431;BME280;10876;49.038;10.608;2022-07-25T01:06:31;97835.66;;;16.76;100.00
21431;BME280;10876;49.038;10.608;2022-07-25T01:08:58;97852.81;;;16.85;100.00
21431;BME280;10876;49.038;10.608;2022-07-25T01:11:25;97856.13;;;16.94;100.00
21431;BME280;10876;49.038;10.608;2022-07-25T01:13:52;97868.38;;;16.97;100.00
21431;BME280;10876;49.038;10.608;2022-07-25T01:16:18;97875.41;;;16.91;100.00
21431;BME280;10876;49.038;10.608;2022-07-25T01:18:45;97875.75;;;16.85;100.00
21431;BME280;10876;49.038;10.608;2022-07-25T01:21:13;97883.66;;;16.87;100.00
21431;BME280;10876;49.038;10.608;2022-07-25T01:23:40;97883.66;;;16.87;100.00
21431;BME280;10876;49.038;10.608;2022-07-25T01:26:07;97887.69;;;16.93;100.00
21431;BME280;10876;49.038;10.608;2022-07-25T01:28:34;97890.78;;;16.88;100.00
21431;BME280;10876;49.038;10.608;2022-07-25T01:31:01;97889.16;;;16.83;100.00
21431;BME280;10876;49.038;10.608;2022-07-25T01:33:27;97877.16;;;16.76;100.00
21431;BME280;10876;49.038;10.608;2022-07-25T01:35:54;97884.97;;;16.70;100.00
21431;BME280;10876;49.038;10.608;2022-07-25T01:38:22;97902.34;;;16.71;100.00
21431;BME280;10876;49.038;10.608;2022-07-25T01:40:49;97933.91;;;16.66;100.00
21431;BME280;10876;49.038;10.608;2022-07-25T01:43:16;97945.00;;;16.70;100.00
21431;BME280;10876;49.038;10.608;2022-07-25T01:45:43;97958.63;;;16.78;100.00
21431;BME280;10876;49.038;10.608;2022-07-25T01:48:09;97962.78;;;16.69;100.00
21431;BME280;10876;49.038;10.608;2022-07-25T01:50:36;97962.53;;;16.54;100.00
21431;BME280;10876;49.038;10.608;2022-07-25T01:53:03;97969.34;;;16.60;100.00
21431;BME280;10876;49.038;10.608;2022-07-25T01:55:31;97971.81;;;16.65;100.00
21431;BME280;10876;49.038;10.608;2022-07-25T01:57:58;97985.91;;;16.57;100.00
21431;BME280;10876;49.038;10.608;2022-07-25T02:00:25;97978.19;;;16.70;100.00
21431;BME280;10876;49.038;10.608;2022-07-25T02:02:52;97993.94;;;16.65;100.00
21431;BME280;10876;49.038;10.608;2022-07-25T02:05:38;97997.13;;;16.67;100.00
21431;BME280;10876;49.038;10.608;2022-07-25T02:08:05;97994.00;;;16.69;100.00
21431;BME280;10876;49.038;10.608;2022-07-25T02:10:33;97999.78;;;16.37;100.00
21431;BME280;10876;49.038;10.608;2022-07-25T02:13:00;98004.75;;;16.28;100.00
21431;BME280;10876;49.038;10.608;2022-07-25T02:15:27;98009.09;;;16.29;100.00
21431;BME280;10876;49.038;10.608;2022-07-25T02:17:54;98019.59;;;16.20;100.00
21431;BME280;10876;49.038;10.608;2022-07-25T02:20:21;98010.47;;;16.19;100.00
21431;BME280;10876;49.038;10.608;2022-07-25T02:22:47;98014.41;;;16.18;100.00
21431;BME280;10876;49.038;10.608;2022-07-25T02:25:14;98019.06;;;16.14;100.00
21431;BME280;10876;49.038;10.608;2022-07-25T02:27:42;98022.41;;;16.24;100.00
21431;BME280;10876;49.038;10.608;2022-07-25T02:30:10;98030.81;;;16.31;100.00
21431;BME280;10876;49.038;10.608;2022-07-25T02:32:37;98036.50;;;16.18;100.00
21431;BME280;10876;49.038;10.608;2022-07-25T02:35:04;98039.84;;;16.28;100.00
21431;BME280;10876;49.038;10.608;2022-07-25T02:37:31;98037.69;;;16.17;100.00
21431;BME280;10876;49.038;10.608;2022-07-25T02:39:58;98033.53;;;16.27;100.00
21431;BME280;10876;49.038;10.608;2022-07-25T02:42:25;98044.34;;;16.16;100.00
21431;BME280;10876;49.038;10.608;2022-07-25T02:44:53;98055.28;;;16.09;100.00
21431;BME280;10876;49.038;10.608;2022-07-25T02:47:20;98051.78;;;16.12;100.00
21431;BME280;10876;49.038;10.608;2022-07-25T02:49:47;98048.06;;;16.05;100.00
21431;BME280;10876;49.038;10.608;2022-07-25T02:52:13;98044.00;;;16.18;100.00
21431;BME280;10876;49.038;10.608;2022-07-25T02:54:40;98053.38;;;16.13;100.00
21431;BME280;10876;49.038;10.608;2022-07-25T02:57:07;98054.56;;;16.12;100.00
21431;BME280;10876;49.038;10.608;2022-07-25T02:59:33;98056.75;;;16.23;100.00
21431;BME280;10876;49.038;10.608;2022-07-25T03:02:01;98053.88;;;16.19;100.00
21431;BME280;10876;49.038;10.608;2022-07-25T03:04:28;98055.41;;;16.16;100.00
21431;BME280;10876;49.038;10.608;2022-07-25T03:06:56;98052.06;;;16.07;100.00
21431;BME280;10876;49.038;10.608;2022-07-25T03:09:22;98057.03;;;16.17;100.00
21431;BME280;10876;49.038;10.608;2022-07-25T03:11:49;98049.91;;;15.97;100.00
21431;BME280;10876;49.038;10.608;2022-07-25T03:14:17;98054.47;;;15.89;100.00
21431;BME280;10876;49.038;10.608;2022-07-25T03:16:44;98050.66;;;15.94;100.00
21431;BME280;10876;49.038;10.608;2022-07-25T03:19:12;98054.09;;;15.91;100.00
21431;BME280;10876;49.038;10.608;2022-07-25T03:21:39;98051.94;;;16.00;100.00
21431;BME280;10876;49.038;10.608;2022-07-25T03:24:06;98048.22;;;15.92;100.00
21431;BME280;10876;49.038;10.608;2022-07-25T03:26:33;98066.16;;;16.02;100.00
21431;BME280;10876;49.038;10.608;2022-07-25T03:29:00;98067.63;;;15.96;100.00
21431;BME280;10876;49.038;10.608;2022-07-25T03:31:26;98059.63;;;15.91;100.00
21431;BME280;10876;49.038;10.608;2022-07-25T03:33:53;98062.53;;;15.79;100.00
21431;BME280;10876;49.038;10.608;2022-07-25T03:36:22;98049.91;;;15.77;100.00
21431;BME280;10876;49.038;10.608;2022-07-25T03:38:49;98049.25;;;15.84;100.00
21431;BME280;10876;49.038;10.608;2022-07-25T03:41:15;98055.44;;;15.97;100.00
21431;BME280;10876;49.038;10.608;2022-07-25T03:43:42;98053.16;;;15.83;100.00
21431;BME280;10876;49.038;10.608;2022-07-25T03:46:09;98075.06;;;15.92;100.00
21431;BME280;10876;49.038;10.608;2022-07-25T03:48:36;98065.75;;;16.00;100.00
21431;BME280;10876;49.038;10.608;2022-07-25T03:51:02;98066.16;;;16.02;100.00
21431;BME280;10876;49.038;10.608;2022-07-25T03:53:31;98072.75;;;15.94;100.00
21431;BME280;10876;49.038;10.608;2022-07-25T03:55:57;98067.13;;;15.90;100.00
21431;BME280;10876;49.038;10.608;2022-07-25T03:58:24;98072.22;;;15.88;100.00
21431;BME280;10876;49.038;10.608;2022-07-25T04:00:51;98053.31;;;15.90;100.00
21431;BME280;10876;49.038;10.608;2022-07-25T04:03:18;98061.47;;;15.83;100.00
21431;BME280;10876;49.038;10.608;2022-07-25T04:05:44;98065.88;;;15.88;100.00
21431;BME280;10876;49.038;10.608;2022-07-25T04:08:11;98076.38;;;15.98;100.00
21431;BME280;10876;49.038;10.608;2022-07-25T04:10:39;98068.66;;;16.07;100.00
21431;BME280;10876;49.038;10.608;2022-07-25T04:13:06;98062.06;;;16.12;100.00
21431;BME280;10876;49.038;10.608;2022-07-25T04:15:33;98061.97;;;16.08;100.00
21431;BME280;10876;49.038;10.608;2022-07-25T04:18:00;98066.78;;;16.11;100.00
21431;BME280;10876;49.038;10.608;2022-07-25T04:20:26;98065.59;;;16.12;100.00
21431;BME280;10876;49.038;10.608;2022-07-25T04:22:53;98069.75;;;16.22;100.00
21431;BME280;10876;49.038;10.608;2022-07-25T04:25:20;98073.00;;;16.28;100.00
21431;BME280;10876;49.038;10.608;2022-07-25T04:27:48;98072.03;;;16.39;100.00
21431;BME280;10876;49.038;10.608;2022-07-25T04:30:14;98065.13;;;16.49;100.00
21431;BME280;10876;49.038;10.608;2022-07-25T04:32:41;98062.94;;;16.58;100.00
21431;BME280;10876;49.038;10.608;2022-07-25T04:35:08;98065.97;;;16.73;100.00
21431;BME280;10876;49.038;10.608;2022-07-25T04:37:35;98064.50;;;16.79;100.00
21431;BME280;10876;49.038;10.608;2022-07-25T04:40:02;98069.75;;;16.84;100.00
21431;BME280;10876;49.038;10.608;2022-07-25T04:42:29;98065.78;;;16.85;100.00
21431;BME280;10876;49.038;10.608;2022-07-25T04:44:58;98070.25;;;16.89;100.00
21431;BME280;10876;49.038;10.608;2022-07-25T04:47:24;98065.19;;;16.95;100.00
21431;BME280;10876;49.038;10.608;2022-07-25T04:49:51;98068.81;;;16.99;100.00
21431;BME280;10876;49.038;10.608;2022-07-25T04:52:18;98050.09;;;17.16;100.00
21431;BME280;10876;49.038;10.608;2022-07-25T04:54:44;98046.06;;;17.36;100.00
21431;BME280;10876;49.038;10.608;2022-07-25T04:57:11;98040.22;;;17.41;100.00
21431;BME280;10876;49.038;10.608;2022-07-25T04:59:38;98030.84;;;17.49;100.00
21431;BME280;10876;49.038;10.608;2022-07-25T05:02:06;98036.59;;;17.64;100.00
21431;BME280;10876;49.038;10.608;2022-07-25T05:04:33;98028.16;;;17.83;100.00
21431;BME280;10876;49.038;10.608;2022-07-25T05:06:59;98027.63;;;18.04;100.00
21431;BME280;10876;49.038;10.608;2022-07-25T05:09:26;98023.13;;;18.26;100.00
21431;BME280;10876;49.038;10.608;2022-07-25T05:11:53;98017.16;;;18.24;100.00
21431;BME280;10876;49.038;10.608;2022-07-25T05:14:22;98005.78;;;18.33;100.00
21431;BME280;10876;49.038;10.608;2022-07-25T05:16:49;98001.94;;;18.44;100.00
21431;BME280;10876;49.038;10.608;2022-07-25T05:19:17;98002.06;;;18.59;100.00
21431;BME280;10876;49.038;10.608;2022-07-25T05:21:44;97992.59;;;18.63;100.00
21431;BME280;10876;49.038;10.608;2022-07-25T05:24:11;98003.88;;;18.81;100.00
21431;BME280;10876;49.038;10.608;2022-07-25T05:26:37;97989.31;;;18.92;100.00
21431;BME280;10876;49.038;10.608;2022-07-25T05:29:04;97985.03;;;19.05;100.00
21431;BME280;10876;49.038;10.608;2022-07-25T05:31:31;97977.59;;;19.20;100.00
21431;BME280;10876;49.038;10.608;2022-07-25T05:33:58;97974.94;;;19.38;100.00
21431;BME280;10876;49.038;10.608;2022-07-25T05:36:26;97965.50;;;19.60;100.00
21431;BME280;10876;49.038;10.608;2022-07-25T05:38:53;97962.88;;;19.82;100.00
21431;BME280;10876;49.038;10.608;2022-07-25T05:41:19;97961.00;;;20.18;100.00
21431;BME280;10876;49.038;10.608;2022-07-25T05:43:46;97957.06;;;20.44;100.00
21431;BME280;10876;49.038;10.608;2022-07-25T05:46:13;97949.19;;;20.75;100.00
21431;BME280;10876;49.038;10.608;2022-07-25T05:48:40;97935.63;;;20.98;100.00
21431;BME280;10876;49.038;10.608;2022-07-25T05:51:07;97934.00;;;21.19;100.00
21431;BME280;10876;49.038;10.608;2022-07-25T05:53:35;97924.38;;;21.48;100.00
21431;BME280;10876;49.038;10.608;2022-07-25T05:56:03;97914.38;;;21.62;100.00
21431;BME280;10876;49.038;10.608;2022-07-25T05:58:30;97905.50;;;21.88;100.00
21431;BME280;10876;49.038;10.608;2022-07-25T06:00:57;97896.97;;;22.13;100.00
21431;BME280;10876;49.038;10.608;2022-07-25T06:03:24;97883.22;;;22.47;100.00
21431;BME280;10876;49.038;10.608;2022-07-25T06:05:51;97868.69;;;22.67;100.00
21431;BME280;10876;49.038;10.608;2022-07-25T06:08:17;97850.53;;;22.89;100.00
21431;BME280;10876;49.038;10.608;2022-07-25T06:10:45;97832.69;;;23.14;100.00
21431;BME280;10876;49.038;10.608;2022-07-25T06:13:12;97819.59;;;23.42;100.00
21431;BME280;10876;49.038;10.608;2022-07-25T06:15:39;97813.38;;;23.57;100.00
21431;BME280;10876;49.038;10.608;2022-07-25T06:18:06;97793.91;;;23.81;100.00
21431;BME280;10876;49.038;10.608;2022-07-25T06:20:33;97775.50;;;24.07;100.00
21431;BME280;10876;49.038;10.608;2022-07-25T06:22:59;97757.19;;;24.26;100.00
21431;BME280;10876;49.038;10.608;2022-07-25T06:25:28;97762.53;;;24.44;100.00
21431;BME280;10876;49.038;10.608;2022-07-25T06:27:56;97742.72;;;24.75;100.00
21431;BME280;10876;49.038;10.608;2022-07-25T06:30:23;97737.41;;;25.00;100.00
21431;BME280;10876;49.038;10.608;2022-07-25T06:32:50;97740.34;;;25.13;100.00
21431;BME280;10876;49.038;10.608;2022-07-25T06:35:17;97738.75;;;25.12;100.00
21431;BME280;10876;49.038;10.608;2022-07-25T06:37:44;97739.28;;;25.27;100.00
21431;BME280;10876;49.038;10.608;2022-07-25T06:40:11;97735.72;;;25.43;100.00
21431;BME280;10876;49.038;10.608;2022-07-25T06:42:37;97730.94;;;25.59;100.00
21431;BME280;10876;49.038;10.608;2022-07-25T06:45:08;97754.88;;;25.64;100.00
21431;BME280;10876;49.038;10.608;2022-07-25T06:47:36;97751.28;;;25.80;100.00
21431;BME280;10876;49.038;10.608;2022-07-25T06:50:04;97762.03;;;26.01;100.00
21431;BME280;10876;49.038;10.608;2022-07-25T06:52:31;97791.44;;;26.13;100.00
21431;BME280;10876;49.038;10.608;2022-07-25T06:54:58;97802.91;;;26.35;100.00
21431;BME280;10876;49.038;10.608;2022-07-25T06:57:25;97814.78;;;26.59;100.00
21431;BME280;10876;49.038;10.608;2022-07-25T06:59:52;97822.94;;;26.54;100.00
21431;BME280;10876;49.038;10.608;2022-07-25T07:02:20;97826.25;;;26.48;100.00
21431;BME280;10876;49.038;10.608;2022-07-25T07:04:47;97838.81;;;26.77;100.00
21431;BME280;10876;49.038;10.608;2022-07-25T07:07:14;97852.28;;;26.98;100.00
21431;BME280;10876;49.038;10.608;2022-07-25T07:09:42;97872.03;;;27.11;100.00
21431;BME280;10876;49.038;10.608;2022-07-25T07:12:09;97886.22;;;27.36;100.00
21431;BME280;10876;49.038;10.608;2022-07-25T07:14:36;97907.44;;;27.25;100.00
21431;BME280;10876;49.038;10.608;2022-07-25T07:17:03;97917.81;;;27.70;100.00
21431;BME280;10876;49.038;10.608;2022-07-25T07:19:31;97950.22;;;27.91;100.00
21431;BME280;10876;49.038;10.608;2022-07-25T07:21:58;97973.31;;;27.85;100.00
21431;BME280;10876;49.038;10.608;2022-07-25T07:24:26;97981.00;;;27.98;100.00
21431;BME280;10876;49.038;10.608;2022-07-25T07:26:53;97980.13;;;28.14;100.00
21431;BME280;10876;49.038;10.608;2022-07-25T07:29:20;97986.84;;;28.03;100.00
21431;BME280;10876;49.038;10.608;2022-07-25T07:31:46;97977.13;;;28.34;100.00
21431;BME280;10876;49.038;10.608;2022-07-25T07:34:13;97974.63;;;28.36;100.00
21431;BME280;10876;49.038;10.608;2022-07-25T07:36:41;97972.53;;;28.52;100.00
21431;BME280;10876;49.038;10.608;2022-07-25T07:39:08;97973.44;;;28.62;100.00
21431;BME280;10876;49.038;10.608;2022-07-25T07:41:35;97968.94;;;28.65;100.00
21431;BME280;10876;49.038;10.608;2022-07-25T07:44:02;97968.13;;;28.64;100.00
21431;BME280;10876;49.038;10.608;2022-07-25T07:46:28;97959.56;;;28.55;100.00
21431;BME280;10876;49.038;10.608;2022-07-25T07:48:55;97964.19;;;28.74;100.00
21431;BME280;10876;49.038;10.608;2022-07-25T07:51:22;97964.28;;;28.84;100.00
21431;BME280;10876;49.038;10.608;2022-07-25T07:53:50;97965.31;;;29.03;100.00
21431;BME280;10876;49.038;10.608;2022-07-25T07:56:34;97968.47;;;28.79;100.00
21431;BME280;10876;49.038;10.608;2022-07-25T07:59:01;97962.56;;;29.12;100.00
21431;BME280;10876;49.038;10.608;2022-07-25T08:01:29;97970.66;;;29.23;100.00
21431;BME280;10876;49.038;10.608;2022-07-25T08:03:56;97976.41;;;29.32;100.00
21431;BME280;10876;49.038;10.608;2022-07-25T08:06:23;97966.69;;;29.68;100.00
21431;BME280;10876;49.038;10.608;2022-07-25T08:08:53;97965.19;;;29.41;100.00
21431;BME280;10876;49.038;10.608;2022-07-25T08:11:20;97970.25;;;29.46;100.00
21431;BME280;10876;49.038;10.608;2022-07-25T08:13:47;97985.78;;;29.63;100.00
21431;BME280;10876;49.038;10.608;2022-07-25T08:16:14;97988.03;;;29.69;100.00
21431;BME280;10876;49.038;10.608;2022-07-25T08:18:40;97978.84;;;29.99;100.00
21431;BME280;10876;49.038;10.608;2022-07-25T08:21:07;97976.22;;;29.83;100.00
21431;BME280;10876;49.038;10.608;2022-07-25T08:23:35;97970.38;;;29.99;100.00
21431;BME280;10876;49.038;10.608;2022-07-25T08:26:05;97979.03;;;30.27;100.00
21431;BME280;10876;49.038;10.608;2022-07-25T08:28:32;97976.94;;;30.81;100.00
21431;BME280;10876;49.038;10.608;2022-07-25T08:30:59;97985.81;;;30.70;100.00
21431;BME280;10876;49.038;10.608;2022-07-25T08:33:25;97986.16;;;30.72;100.00
21431;BME280;10876;49.038;10.608;2022-07-25T08:35:53;97978.69;;;30.87;100.00
21431;BME280;10876;49.038;10.608;2022-07-25T08:38:21;97987.22;;;30.65;100.00
21431;BME280;10876;49.038;10.608;2022-07-25T08:40:49;97995.25;;;30.76;100.00
21431;BME280;10876;49.038;10.608;2022-07-25T08:43:18;97998.38;;;31.00;100.00
21431;BME280;10876;49.038;10.608;2022-07-25T08:45:46;97993.94;;;30.90;100.00
21431;BME280;10876;49.038;10.608;2022-07-25T08:48:15;98006.97;;;30.87;100.00
21431;BME280;10876;49.038;10.608;2022-07-25T08:50:42;97993.22;;;31.08;100.00
21431;BME280;10876;49.038;10.608;2022-07-25T08:53:09;97996.44;;;31.47;100.00
21431;BME280;10876;49.038;10.608;2022-07-25T08:55:36;98000.69;;;31.79;100.00
21431;BME280;10876;49.038;10.608;2022-07-25T08:58:03;98002.09;;;32.02;100.00
21431;BME280;10876;49.038;10.608;2022-07-25T09:00:32;97999.91;;;32.06;100.00
21431;BME280;10876;49.038;10.608;2022-07-25T09:03:00;98001.81;;;32.00;100.00
21431;BME280;10876;49.038;10.608;2022-07-25T09:05:29;98012.03;;;31.79;100.00
21431;BME280;10876;49.038;10.608;2022-07-25T09:08:04;97997.22;;;31.84;100.00
21431;BME280;10876;49.038;10.608;2022-07-25T09:10:31;98010.28;;;32.18;100.00
21431;BME280;10876;49.038;10.608;2022-07-25T09:12:59;98000.78;;;32.40;100.00
21431;BME280;10876;49.038;10.608;2022-07-25T09:15:28;98011.56;;;32.08;100.00
21431;BME280;10876;49.038;10.608;2022-07-25T09:17:57;97994.84;;;32.19;100.00
21431;BME280;10876;49.038;10.608;2022-07-25T09:20:35;97992.03;;;32.10;100.00
21431;BME280;10876;49.038;10.608;2022-07-25T09:23:02;97996.50;;;32.53;100.00
21431;BME280;10876;49.038;10.608;2022-07-25T09:25:29;97994.16;;;32.34;100.00
21431;BME280;10876;49.038;10.608;2022-07-25T09:28:08;97995.50;;;32.05;100.00
21431;BME280;10876;49.038;10.608;2022-07-25T09:30:35;97983.28;;;32.41;100.00
21431;BME280;10876;49.038;10.608;2022-07-25T09:33:03;97988.97;;;32.84;100.00
21431;BME280;10876;49.038;10.608;2022-07-25T09:35:30;97985.97;;;32.54;100.00
21431;BME280;10876;49.038;10.608;2022-07-25T09:38:12;97991.72;;;33.02;100.00
21431;BME280;10876;49.038;10.608;2022-07-25T09:40:40;97990.44;;;33.12;100.00
21431;BME280;10876;49.038;10.608;2022-07-25T09:43:07;97988.19;;;33.64;100.00
21431;BME280;10876;49.038;10.608;2022-07-25T09:45:34;97982.63;;;33.22;100.00
21431;BME280;10876;49.038;10.608;2022-07-25T09:48:03;97977.88;;;33.52;100.00
21431;BME280;10876;49.038;10.608;2022-07-25T09:50:31;97984.13;;;33.56;100.00
21431;BME280;10876;49.038;10.608;2022-07-25T09:53:00;97980.03;;;33.57;100.00
21431;BME280;10876;49.038;10.608;2022-07-25T09:55:28;97976.28;;;33.51;100.00
21431;BME280;10876;49.038;10.608;2022-07-25T09:57:55;97966.50;;;33.52;100.00
21431;BME280;10876;49.038;10.608;2022-07-25T10:00:23;97964.59;;;33.88;100.00
21431;BME280;10876;49.038;10.608;2022-07-25T10:03:09;97966.78;;;33.93;100.00
21431;BME280;10876;49.038;10.608;2022-07-25T10:05:48;97957.19;;;33.28;100.00
21431;BME280;10876;49.038;10.608;2022-07-25T10:08:17;97957.56;;;33.98;100.00
21431;BME280;10876;49.038;10.608;2022-07-25T10:10:45;97946.91;;;34.23;100.00
21431;BME280;10876;49.038;10.608;2022-07-25T10:13:13;97949.03;;;34.28;100.00
21431;BME280;10876;49.038;10.608;2022-07-25T10:15:47;97948.28;;;34.13;100.00
21431;BME280;10876;49.038;10.608;2022-07-25T10:18:18;97948.16;;;33.92;100.00
21431;BME280;10876;49.038;10.608;2022-07-25T10:20:46;97939.13;;;34.38;100.00
21431;BME280;10876;49.038;10.608;2022-07-25T10:23:21;97949.22;;;34.39;100.00
21431;BME280;10876;49.038;10.608;2022-07-25T10:25:59;97933.84;;;34.31;100.00
21431;BME280;10876;49.038;10.608;2022-07-25T10:28:38;97938.56;;;34.84;100.00
21431;BME280;10876;49.038;10.608;2022-07-25T10:31:16;97930.84;;;34.70;100.00
21431;BME280;10876;49.038;10.608;2022-07-25T10:33:49;97925.22;;;34.11;100.00
21431;BME280;10876;49.038;10.608;2022-07-25T10:36:16;97921.88;;;34.27;100.00
21431;BME280;10876;49.038;10.608;2022-07-25T10:38:43;97920.69;;;34.48;100.00
21431;BME280;10876;49.038;10.608;2022-07-25T10:41:11;97914.34;;;34.74;100.00
21431;BME280;10876;49.038;10.608;2022-07-25T10:43:38;97911.94;;;34.87;100.00
21431;BME280;10876;49.038;10.608;2022-07-25T10:46:11;97909.97;;;34.93;100.00
21431;BME280;10876;49.038;10.608;2022-07-25T10:48:39;97912.00;;;35.08;100.00
21431;BME280;10876;49.038;10.608;2022-07-25T10:51:09;97900.44;;;35.17;100.00
21431;BME280;10876;49.038;10.608;2022-07-25T10:53:38;97895.69;;;35.29;100.00
21431;BME280;10876;49.038;10.608;2022-07-25T10:56:13;97907.63;;;34.92;100.00
21431;BME280;10876;49.038;10.608;2022-07-25T10:58:42;97894.41;;;35.30;100.00
21431;BME280;10876;49.038;10.608;2022-07-25T11:01:09;97884.53;;;35.51;100.00
21431;BME280;10876;49.038;10.608;2022-07-25T11:03:39;97879.53;;;35.93;100.00
21431;BME280;10876;49.038;10.608;2022-07-25T11:06:07;97866.72;;;35.56;100.00
21431;BME280;10876;49.038;10.608;2022-07-25T11:08:34;97866.97;;;35.32;100.00
21431;BME280;10876;49.038;10.608;2022-07-25T11:11:03;97867.97;;;34.88;100.00
21431;BME280;10876;49.038;10.608;2022-07-25T11:13:29;97853.31;;;34.95;100.00
21431;BME280;10876;49.038;10.608;2022-07-25T11:16:01;97842.59;;;35.31;97.09
21431;BME280;10876;49.038;10.608;2022-07-25T11:18:33;97836.97;;;35.37;92.29
21431;BME280;10876;49.038;10.608;2022-07-25T11:21:03;97835.09;;;35.08;89.07
21431;BME280;10876;49.038;10.608;2022-07-25T11:23:31;97826.91;;;35.15;85.91
21431;BME280;10876;49.038;10.608;2022-07-25T11:26:08;97809.66;;;35.51;86.94
21431;BME280;10876;49.038;10.608;2022-07-25T11:28:39;97823.06;;;35.45;88.20
21431;BME280;10876;49.038;10.608;2022-07-25T11:31:07;97820.16;;;35.13;88.08
21431;BME280;10876;49.038;10.608;2022-07-25T11:33:34;97815.81;;;35.43;88.74
21431;BME280;10876;49.038;10.608;2022-07-25T11:36:01;97817.25;;;35.33;85.66
21431;BME280;10876;49.038;10.608;2022-07-25T11:38:28;97798.56;;;35.84;87.65
21431;BME280;10876;49.038;10.608;2022-07-25T11:40:57;97804.72;;;35.51;90.47
21431;BME280;10876;49.038;10.608;2022-07-25T11:43:24;97798.16;;;35.65;91.20
21431;BME280;10876;49.038;10.608;2022-07-25T11:45:56;97794.91;;;35.78;87.46
21431;BME280;10876;49.038;10.608;2022-07-25T11:48:29;97788.16;;;36.07;83.39
21431;BME280;10876;49.038;10.608;2022-07-25T11:50:57;97794.38;;;35.74;80.57
21431;BME280;10876;49.038;10.608;2022-07-25T11:53:23;97777.41;;;35.65;81.96
21431;BME280;10876;49.038;10.608;2022-07-25T11:55:51;97778.03;;;35.49;85.15
21431;BME280;10876;49.038;10.608;2022-07-25T11:58:22;97772.56;;;35.45;86.12
21431;BME280;10876;49.038;10.608;2022-07-25T12:00:49;97770.00;;;35.47;84.98
21431;BME280;10876;49.038;10.608;2022-07-25T12:03:17;97770.84;;;35.85;84.30
21431;BME280;10876;49.038;10.608;2022-07-25T12:05:46;97773.28;;;35.98;82.73
21431;BME280;10876;49.038;10.608;2022-07-25T12:08:14;97762.41;;;36.02;80.75
21431;BME280;10876;49.038;10.608;2022-07-25T12:10:42;97767.13;;;35.73;81.45
21431;BME280;10876;49.038;10.608;2022-07-25T12:13:19;97760.06;;;35.63;78.36
21431;BME280;10876;49.038;10.608;2022-07-25T12:15:48;97760.56;;;35.99;79.75
21431;BME280;10876;49.038;10.608;2022-07-25T12:18:15;97760.69;;;35.78;81.43
21431;BME280;10876;49.038;10.608;2022-07-25T12:20:43;97753.66;;;36.11;79.84
21431;BME280;10876;49.038;10.608;2022-07-25T12:23:11;97746.72;;;36.18;78.17
21431;BME280;10876;49.038;10.608;2022-07-25T12:25:40;97745.91;;;35.80;73.51
21431;BME280;10876;49.038;10.608;2022-07-25T12:28:07;97739.88;;;36.04;73.49
21431;BME280;10876;49.038;10.608;2022-07-25T12:30:35;97731.56;;;35.63;72.04
21431;BME280;10876;49.038;10.608;2022-07-25T12:33:04;97735.22;;;35.69;72.13
21431;BME280;10876;49.038;10.608;2022-07-25T12:35:31;97728.28;;;36.13;72.04
21431;BME280;10876;49.038;10.608;2022-07-25T12:37:58;97735.81;;;36.70;73.53
21431;BME280;10876;49.038;10.608;2022-07-25T12:40:25;97721.63;;;36.93;70.52
21431;BME280;10876;49.038;10.608;2022-07-25T12:42:52;97720.25;;;36.71;70.37